createdAt,value
2023-01-15T00:01:34.894Z,98183.97
2023-01-15T00:04:08.132Z,98185.52
2023-01-15T00:06:42.617Z,98186.17
2023-01-15T00:09:15.623Z,98187.99
2023-01-15T00:11:44.294Z,98186.93
2023-01-15T00:14:17.879Z,98185.59
2023-01-15T00:16:46.557Z,98191.15
2023-01-15T00:19:16.169Z,98194.42
2023-01-15T00:21:44.911Z,98194.85
2023-01-15T00:24:32.143Z,98195.05
2023-01-15T00:27:22.826Z,98199.44
2023-01-15T00:29:53.865Z,98199.23
2023-01-15T00:32:23.048Z,98199.05
2023-01-15T00:34:54.313Z,98197.16
2023-01-15T00:37:25.428Z,98200.30
2023-01-15T00:39:54.940Z,98200.95
2023-01-15T00:42:23.724Z,98201.14
2023-01-15T00:44:52.396Z,98196.63
2023-01-15T00:47:23.559Z,98194.98
2023-01-15T00:49:55.159Z,98196.03
2023-01-15T00:52:27.006Z,98201.30
2023-01-15T00:54:56.013Z,98202.41
2023-01-15T00:57:28.771Z,98192.52
2023-01-15T00:59:57.599Z,98191.91
2023-01-15T01:02:31.306Z,98191.68
2023-01-15T01:05:06.317Z,98189.01
2023-01-15T01:07:39.805Z,98178.85
2023-01-15T01:10:09.791Z,98175.02
2023-01-15T01:12:38.519Z,98171.17
2023-01-15T01:15:12.711Z,98170.13
2023-01-15T01:17:41.526Z,98168.26
2023-01-15T01:20:12.704Z,98166.77
2023-01-15T01:22:41.510Z,98168.88
2023-01-15T01:25:14.152Z,98165.67
2023-01-15T01:27:47.767Z,98162.42
2023-01-15T01:30:22.047Z,98162.90
2023-01-15T01:32:50.677Z,98161.30
2023-01-15T01:35:19.635Z,98157.52
2023-01-15T01:37:52.225Z,98153.24
2023-01-15T01:40:25.631Z,98150.90
2023-01-15T01:42:54.495Z,98156.83
2023-01-15T01:45:30.321Z,98149.92
2023-01-15T01:48:06.685Z,98145.36
2023-01-15T01:50:40.095Z,98142.56
2023-01-15T01:53:15.167Z,98144.44
2023-01-15T01:55:47.286Z,98143.85
2023-01-15T01:58:18.013Z,98140.40
2023-01-15T02:00:52.269Z,98137.38
2023-01-15T02:03:26.056Z,98139.20
2023-01-15T02:05:58.712Z,98133.64
2023-01-15T02:08:35.282Z,98134.86
2023-01-15T02:11:06.866Z,98134.27
2023-01-15T02:13:50.410Z,98134.13
2023-01-15T02:16:43.808Z,98134.42
2023-01-15T02:19:36.935Z,98133.68
2023-01-15T02:22:47.682Z,98134.16
2023-01-15T02:26:03.508Z,98131.85
2023-01-15T02:28:37.577Z,98125.36
2023-01-15T02:31:16.818Z,98121.11
2023-01-15T02:33:51.931Z,98117.86
2023-01-15T02:36:26.777Z,98116.02
2023-01-15T02:39:02.596Z,98116.59
2023-01-15T02:41:40.054Z,98117.96
2023-01-15T02:44:16.997Z,98115.05
2023-01-15T02:46:49.196Z,98114.32
2023-01-15T02:49:21.356Z,98116.55
2023-01-15T02:52:07.836Z,98115.77
2023-01-15T02:54:44.196Z,98115.08
2023-01-15T02:57:16.968Z,98112.81
2023-01-15T02:59:51.174Z,98112.64
2023-01-15T03:02:29.714Z,98111.71
2023-01-15T03:05:03.689Z,98110.79
2023-01-15T03:07:48.423Z,98108.23
2023-01-15T03:10:17.848Z,98108.11
2023-01-15T03:13:02.943Z,98110.25
2023-01-15T03:16:26.806Z,98113.19
2023-01-15T03:19:13.965Z,98111.48
2023-01-15T03:22:09.922Z,98114.66
2023-01-15T03:25:04.294Z,98111.66
2023-01-15T03:27:41.460Z,98110.16
2023-01-15T03:30:17.512Z,98109.08
2023-01-15T03:32:47.367Z,98110.16
2023-01-15T03:35:55.202Z,98110.93
2023-01-15T03:38:37.487Z,98109.25
2023-01-15T03:41:06.915Z,98110.86
2023-01-15T03:44:00.832Z,98112.64
2023-01-15T03:46:47.013Z,98113.84
2023-01-15T03:49:21.864Z,98111.62
2023-01-15T03:52:08.543Z,98110.08
2023-01-15T03:54:41.045Z,98107.08
2023-01-15T03:57:36.988Z,98101.73
2023-01-15T04:00:37.807Z,98102.39
2023-01-15T04:03:09.218Z,98101.66
2023-01-15T04:05:42.251Z,98097.64
2023-01-15T04:08:17.998Z,98094.31
2023-01-15T04:10:56.389Z,98092.25
2023-01-15T04:13:30.987Z,98089.91
2023-01-15T04:16:00.525Z,98084.56
2023-01-15T04:18:32.163Z,98078.05
2023-01-15T04:21:06.773Z,98070.27
2023-01-15T04:23:36.222Z,98067.98
2023-01-15T04:26:05.249Z,98064.23
2023-01-15T04:28:34.956Z,98064.80
2023-01-15T04:31:12.510Z,98063.98
2023-01-15T04:33:43.792Z,98060.02
2023-01-15T04:36:12.512Z,98057.96
2023-01-15T04:38:45.576Z,98052.23
2023-01-15T04:41:58.108Z,98052.73
2023-01-15T04:44:30.307Z,98050.70
2023-01-15T04:47:00.257Z,98051.02
2023-01-15T04:49:31.654Z,98050.08
2023-01-15T04:52:07.308Z,98046.83
2023-01-15T04:54:35.920Z,98046.80
2023-01-15T04:57:05.595Z,98047.77
2023-01-15T04:59:36.980Z,98048.81
2023-01-15T05:02:07.147Z,98049.46
2023-01-15T05:04:36.210Z,98042.96
2023-01-15T05:07:05.763Z,98041.58
2023-01-15T05:09:34.896Z,98039.79
2023-01-15T05:12:03.758Z,98042.31
2023-01-15T05:14:32.337Z,98043.23
2023-01-15T05:17:03.323Z,98043.52
2023-01-15T05:19:34.890Z,98040.63
2023-01-15T05:22:04.317Z,98040.55
2023-01-15T05:24:32.895Z,98041.75
2023-01-15T05:27:05.791Z,98047.98
2023-01-15T05:29:34.140Z,98048.63
2023-01-15T05:32:06.400Z,98047.95
2023-01-15T05:34:36.732Z,98047.62
2023-01-15T05:37:07.998Z,98048.38
2023-01-15T05:39:41.783Z,98044.25
2023-01-15T05:42:13.166Z,98047.79
2023-01-15T05:44:42.328Z,98046.89
2023-01-15T05:47:11.282Z,98048.41
2023-01-15T05:49:40.185Z,98049.13
2023-01-15T05:52:11.608Z,98050.95
2023-01-15T05:54:45.621Z,98055.83
2023-01-15T05:57:19.003Z,98057.44
2023-01-15T05:59:50.721Z,98057.72
2023-01-15T06:02:19.607Z,98055.95
2023-01-15T06:04:48.238Z,98057.65
2023-01-15T06:07:19.777Z,98064.94
2023-01-15T06:09:48.428Z,98064.18
2023-01-15T06:12:17.130Z,98062.48
2023-01-15T06:14:48.575Z,98065.96
2023-01-15T06:17:21.916Z,98064.56
2023-01-15T06:19:50.427Z,98064.70
2023-01-15T06:22:21.836Z,98065.95
2023-01-15T06:24:50.370Z,98068.00
2023-01-15T06:27:21.342Z,98066.70
2023-01-15T06:29:49.886Z,98066.34
2023-01-15T06:32:20.874Z,98068.77
2023-01-15T06:34:51.155Z,98069.02
2023-01-15T06:37:19.735Z,98069.45
2023-01-15T06:39:48.350Z,98070.92
2023-01-15T06:42:35.388Z,98064.25
2023-01-15T06:45:23.021Z,98060.30
2023-01-15T06:47:51.625Z,98058.67
2023-01-15T06:50:22.437Z,98055.94
2023-01-15T06:52:50.970Z,98056.45
2023-01-15T06:55:24.886Z,98052.52
2023-01-15T06:57:53.468Z,98054.62
2023-01-15T07:00:22.106Z,98053.92
2023-01-15T07:02:50.719Z,98050.55
2023-01-15T07:05:19.266Z,98050.63
2023-01-15T07:07:52.525Z,98053.10
2023-01-15T07:10:21.385Z,98050.20
2023-01-15T07:12:50.956Z,98052.23
2023-01-15T07:15:19.473Z,98056.00
2023-01-15T07:17:47.922Z,98056.89
2023-01-15T07:20:19.021Z,98056.20
2023-01-15T07:22:53.465Z,98054.09
2023-01-15T07:25:29.319Z,98051.63
2023-01-15T07:27:58.009Z,98053.32
2023-01-15T07:30:28.963Z,98048.94
2023-01-15T07:32:58.092Z,98051.71
2023-01-15T07:35:29.917Z,98051.78
2023-01-15T07:38:00.901Z,98045.41
2023-01-15T07:40:33.257Z,98038.37
2023-01-15T07:43:20.460Z,98034.40
2023-01-15T07:46:10.560Z,98033.33
2023-01-15T07:48:57.545Z,98029.50
2023-01-15T07:51:26.223Z,98028.59
2023-01-15T07:53:54.883Z,98030.07
2023-01-15T07:56:25.794Z,98029.59
2023-01-15T07:58:54.259Z,98029.44
2023-01-15T08:01:23.049Z,98029.12
2023-01-15T08:03:51.879Z,98024.75
2023-01-15T08:06:25.627Z,98021.11
2023-01-15T08:08:54.209Z,98029.58
2023-01-15T08:11:43.918Z,98028.30
2023-01-15T08:14:44.696Z,98024.48
2023-01-15T08:17:13.449Z,98025.04
2023-01-15T08:19:41.932Z,98020.11
2023-01-15T08:22:13.422Z,98014.06
2023-01-15T08:24:41.947Z,98012.10
2023-01-15T08:27:10.566Z,98006.20
2023-01-15T08:29:40.433Z,98003.64
2023-01-15T08:32:09.302Z,98001.63
2023-01-15T08:34:37.956Z,97999.40
2023-01-15T08:37:06.471Z,98000.15
2023-01-15T08:39:35.133Z,98003.31
2023-01-15T08:42:03.810Z,97999.17
2023-01-15T08:44:33.469Z,97998.25
2023-01-15T08:47:04.716Z,97999.19
2023-01-15T08:49:34.196Z,97994.68
2023-01-15T08:52:06.349Z,97993.67
2023-01-15T08:54:35.248Z,97993.17
2023-01-15T08:57:04.071Z,97990.66
2023-01-15T08:59:33.388Z,97989.93
2023-01-15T09:02:02.095Z,97989.04
2023-01-15T09:04:34.061Z,97983.99
2023-01-15T09:07:02.878Z,97972.70
2023-01-15T09:09:31.596Z,97966.61
2023-01-15T09:12:00.319Z,97962.52
2023-01-15T09:14:57.443Z,97958.75
2023-01-15T09:17:20.611Z,97951.21
2023-01-15T09:19:49.151Z,97943.65
2023-01-15T09:22:21.228Z,97946.38
2023-01-15T09:24:52.171Z,97943.04
2023-01-15T09:27:20.676Z,97934.98
2023-01-15T09:29:52.216Z,97925.49
2023-01-15T09:32:20.755Z,97921.15
2023-01-15T09:34:49.227Z,97918.39
2023-01-15T09:37:19.863Z,97914.36
2023-01-15T09:39:48.491Z,97908.61
2023-01-15T09:42:32.176Z,97908.65
2023-01-15T09:45:26.710Z,97905.35
2023-01-15T09:48:18.454Z,97902.44
2023-01-15T09:51:24.725Z,97895.21
2023-01-15T09:54:08.913Z,97889.06
2023-01-15T09:56:38.713Z,97886.52
2023-01-15T09:59:25.456Z,97879.33
2023-01-15T10:01:57.185Z,97876.66
2023-01-15T10:04:38.565Z,97875.46
2023-01-15T10:07:29.235Z,97872.36
2023-01-15T10:10:06.649Z,97871.75
2023-01-15T10:12:37.468Z,97866.13
2023-01-15T10:15:44.896Z,97861.91
2023-01-15T10:18:21.919Z,97857.70
2023-01-15T10:21:26.122Z,97859.60
2023-01-15T10:24:03.042Z,97857.72
2023-01-15T10:26:53.715Z,97854.61
2023-01-15T10:29:46.671Z,97856.86
2023-01-15T10:33:02.318Z,97852.87
2023-01-15T10:35:41.566Z,97850.22
2023-01-15T10:38:35.484Z,97845.01
2023-01-15T10:41:50.227Z,97841.61
2023-01-15T10:44:29.836Z,97838.47
2023-01-15T10:47:01.941Z,97839.31
2023-01-15T10:49:31.357Z,97835.92
2023-01-15T10:52:32.733Z,97832.91
2023-01-15T10:55:28.867Z,97830.94
2023-01-15T10:58:15.278Z,97823.54
2023-01-15T11:00:50.951Z,97822.50
2023-01-15T11:03:38.052Z,97820.14
2023-01-15T11:06:12.163Z,97813.79
2023-01-15T11:09:12.550Z,97814.15
2023-01-15T11:12:01.174Z,97808.01
2023-01-15T11:15:09.557Z,97803.16
2023-01-15T11:18:02.692Z,97795.13
2023-01-15T11:20:39.420Z,97783.91
2023-01-15T11:23:11.736Z,97776.21
2023-01-15T11:25:50.601Z,97769.31
2023-01-15T11:28:31.966Z,97767.94
2023-01-15T11:31:00.566Z,97765.55
2023-01-15T11:33:32.146Z,97760.34
2023-01-15T11:36:04.424Z,97753.98
2023-01-15T11:38:48.256Z,97743.60
2023-01-15T11:41:24.350Z,97746.63
2023-01-15T11:44:18.232Z,97740.90
2023-01-15T11:47:05.957Z,97733.76
2023-01-15T11:49:53.172Z,97728.23
2023-01-15T11:52:24.701Z,97722.34
2023-01-15T11:54:55.787Z,97715.40
2023-01-15T11:57:37.353Z,97712.68
2023-01-15T12:00:08.490Z,97706.75
2023-01-15T12:02:49.231Z,97698.14
2023-01-15T12:05:30.448Z,97698.79
2023-01-15T12:08:04.712Z,97698.23
2023-01-15T12:11:25.263Z,97698.44
2023-01-15T12:14:12.300Z,97688.16
2023-01-15T12:16:57.847Z,97681.78
2023-01-15T12:20:02.656Z,97685.18
2023-01-15T12:23:09.148Z,97675.73
2023-01-15T12:25:43.921Z,97672.30
2023-01-15T12:28:25.655Z,97669.34
2023-01-15T12:31:06.279Z,97665.33
2023-01-15T12:33:42.566Z,97667.95
2023-01-15T12:36:15.904Z,97664.16
2023-01-15T12:38:56.862Z,97659.81
2023-01-15T12:41:52.239Z,97658.05
2023-01-15T12:45:08.670Z,97656.97
2023-01-15T12:48:14.773Z,97656.84
2023-01-15T12:50:49.520Z,97650.94
2023-01-15T12:56:59.752Z,97656.48
2023-01-15T13:00:03.066Z,97654.56
2023-01-15T13:02:58.577Z,97650.95
2023-01-15T13:05:30.289Z,97650.37
2023-01-15T13:07:58.759Z,97647.76
2023-01-15T13:10:34.716Z,97645.60
2023-01-15T13:13:17.188Z,97646.23
2023-01-15T13:15:58.544Z,97644.31
2023-01-15T13:18:47.657Z,97640.38
2023-01-15T13:21:20.081Z,97632.81
2023-01-15T13:24:22.815Z,97632.58
2023-01-15T13:26:57.355Z,97632.55
2023-01-15T13:30:23.266Z,97629.88
2023-01-15T13:32:56.847Z,97623.71
2023-01-15T13:35:30.249Z,97622.61
2023-01-15T13:38:03.679Z,97621.16
2023-01-15T13:40:40.538Z,97619.73
2023-01-15T13:43:21.698Z,97618.81
2023-01-15T13:45:51.116Z,97622.03
2023-01-15T13:48:24.272Z,97620.35
2023-01-15T13:50:55.550Z,97619.80
2023-01-15T13:53:40.096Z,97618.70
2023-01-15T13:56:12.861Z,97616.92
2023-01-15T13:58:52.858Z,97613.77
2023-01-15T14:01:35.681Z,97614.89
2023-01-15T14:04:10.889Z,97614.58
2023-01-15T14:06:46.564Z,97613.37
2023-01-15T14:09:21.224Z,97611.21
2023-01-15T14:12:08.297Z,97614.90
2023-01-15T14:14:46.046Z,97612.90
2023-01-15T14:17:43.971Z,97608.63
2023-01-15T14:20:22.213Z,97603.70
2023-01-15T14:23:03.080Z,97603.63
2023-01-15T14:26:07.131Z,97602.96
2023-01-15T14:29:22.443Z,97602.70
2023-01-15T14:31:51.260Z,97601.77
2023-01-15T14:34:31.439Z,97603.34
2023-01-15T14:37:22.186Z,97603.85
2023-01-15T14:39:58.880Z,97608.96
2023-01-15T14:42:57.109Z,97607.14
2023-01-15T14:45:32.869Z,97607.09
2023-01-15T14:48:23.504Z,97607.59
2023-01-15T14:50:54.203Z,97604.77
2023-01-15T14:53:38.860Z,97603.11
2023-01-15T14:56:29.335Z,97605.27
2023-01-15T14:59:20.385Z,97602.40
2023-01-15T15:01:49.729Z,97599.52
2023-01-15T15:04:43.693Z,97601.11
2023-01-15T15:07:13.498Z,97602.40
2023-01-15T15:10:30.404Z,97599.30
2023-01-15T15:13:28.086Z,97593.05
2023-01-15T15:16:13.653Z,97592.46
2023-01-15T15:19:14.535Z,97589.74
2023-01-15T15:21:47.072Z,97586.71
2023-01-15T15:24:28.079Z,97581.92
2023-01-15T15:26:56.640Z,97583.14
2023-01-15T15:29:25.182Z,97580.77
2023-01-15T15:31:58.341Z,97572.09
2023-01-15T15:34:26.946Z,97566.95
2023-01-15T15:36:58.569Z,97564.98
2023-01-15T15:39:55.517Z,97559.33
2023-01-15T15:42:48.100Z,97555.57
2023-01-15T15:45:56.563Z,97553.94
2023-01-15T15:48:47.968Z,97551.47
2023-01-15T15:51:33.211Z,97547.91
2023-01-15T15:54:22.673Z,97545.83
2023-01-15T15:57:03.399Z,97545.88
2023-01-15T15:59:38.655Z,97549.34
2023-01-15T16:02:23.194Z,97547.80
2023-01-15T16:04:55.214Z,97546.73
2023-01-15T16:07:34.203Z,97546.13
2023-01-15T16:10:27.152Z,97547.23
2023-01-15T16:12:59.332Z,97545.49
2023-01-15T16:15:39.256Z,97537.32
2023-01-15T16:18:19.074Z,97536.73
2023-01-15T16:20:48.864Z,97531.77
2023-01-15T16:23:28.894Z,97530.11
2023-01-15T16:26:23.202Z,97524.67
2023-01-15T16:28:55.439Z,97519.39
2023-01-15T16:31:25.036Z,97514.13
2023-01-15T16:33:57.651Z,97514.55
2023-01-15T16:36:28.624Z,97510.27
2023-01-15T16:38:57.557Z,97509.02
2023-01-15T16:41:35.933Z,97504.21
2023-01-15T16:44:07.587Z,97502.45
2023-01-15T16:46:50.011Z,97502.48
2023-01-15T16:49:22.330Z,97495.27
2023-01-15T16:51:53.402Z,97490.23
2023-01-15T16:54:31.862Z,97490.73
2023-01-15T16:57:05.815Z,97490.63
2023-01-15T16:59:35.288Z,97489.52
2023-01-15T17:02:22.697Z,97485.86
2023-01-15T17:04:59.332Z,97484.14
2023-01-15T17:07:37.713Z,97486.45
2023-01-15T17:10:20.411Z,97486.52
2023-01-15T17:12:50.477Z,97486.60
2023-01-15T17:15:20.070Z,97491.87
2023-01-15T17:17:50.998Z,97489.06
2023-01-15T17:20:24.085Z,97487.99
2023-01-15T17:22:56.864Z,97488.77
2023-01-15T17:25:36.256Z,97487.89
2023-01-15T17:28:05.860Z,97482.95
2023-01-15T17:30:40.153Z,97487.90
2023-01-15T17:33:13.024Z,97486.61
2023-01-15T17:35:48.664Z,97484.48
2023-01-15T17:38:19.125Z,97482.25
2023-01-15T17:40:48.546Z,97483.59
2023-01-15T17:43:21.841Z,97481.34
2023-01-15T17:45:51.189Z,97483.16
2023-01-15T17:48:20.662Z,97480.40
2023-01-15T17:50:55.432Z,97480.40
2023-01-15T17:53:25.488Z,97477.98
2023-01-15T17:56:13.227Z,97476.16
2023-01-15T17:59:00.892Z,97475.77
2023-01-15T18:01:53.211Z,97469.30
2023-01-15T18:04:49.689Z,97471.57
2023-01-15T18:07:22.900Z,97464.64
2023-01-15T18:09:54.433Z,97459.62
2023-01-15T18:17:55.015Z,97459.96
2023-01-15T18:20:24.244Z,97459.27
2023-01-15T18:22:52.823Z,97458.08
2023-01-15T18:25:21.512Z,97457.47
2023-01-15T18:27:50.702Z,97453.36
2023-01-15T18:30:19.762Z,97447.02
2023-01-15T18:32:48.439Z,97445.22
2023-01-15T18:35:18.492Z,97440.39
2023-01-15T18:37:46.928Z,97440.93
2023-01-15T18:40:15.649Z,97441.70
2023-01-15T18:43:02.778Z,97440.77
2023-01-15T18:45:50.141Z,97437.77
2023-01-15T18:48:18.735Z,97437.95
2023-01-15T18:50:49.199Z,97442.93
2023-01-15T18:53:20.192Z,97442.27
2023-01-15T18:55:48.919Z,97444.83
2023-01-15T18:58:17.811Z,97448.40
2023-01-15T19:00:46.346Z,97449.45
2023-01-15T19:03:15.028Z,97448.90
2023-01-15T19:05:50.050Z,97447.73
2023-01-15T19:08:21.758Z,97445.84
2023-01-15T19:10:50.268Z,97441.61
2023-01-15T19:13:19.556Z,97443.33
2023-01-15T19:16:06.647Z,97444.84
2023-01-15T19:18:52.690Z,97448.20
2023-01-15T19:21:25.145Z,97448.73
2023-01-15T19:23:54.080Z,97443.89
2023-01-15T19:26:22.863Z,97438.89
2023-01-15T19:28:51.313Z,97437.52
2023-01-15T19:31:39.486Z,97435.14
2023-01-15T19:34:32.683Z,97431.33
2023-01-15T19:36:59.645Z,97432.21
2023-01-15T19:39:29.395Z,97429.80
2023-01-15T19:42:18.510Z,97426.89
2023-01-15T19:45:05.477Z,97426.23
2023-01-15T19:47:56.069Z,97421.98
2023-01-15T19:50:37.954Z,97429.20
2023-01-15T19:53:07.353Z,97429.30
2023-01-15T19:55:37.949Z,97423.58
2023-01-15T19:58:10.293Z,97415.61
2023-01-15T20:00:40.593Z,97417.19
2023-01-15T20:03:13.500Z,97415.92
2023-01-15T20:05:42.895Z,97416.06
2023-01-15T20:08:14.268Z,97417.42
2023-01-15T20:10:45.183Z,97418.11
2023-01-15T20:13:42.494Z,97421.83
2023-01-15T20:16:14.327Z,97428.77
2023-01-15T20:18:43.653Z,97430.52
2023-01-15T20:21:14.816Z,97428.92
2023-01-15T20:23:44.417Z,97426.58
2023-01-15T20:26:15.088Z,97426.16
2023-01-15T20:28:47.290Z,97420.88
2023-01-15T20:31:18.186Z,97418.70
2023-01-15T20:33:47.727Z,97419.41
2023-01-15T20:36:16.318Z,97416.55
2023-01-15T20:38:45.535Z,97418.13
2023-01-15T20:41:40.191Z,97420.10
2023-01-15T20:44:29.317Z,97419.79
2023-01-15T20:46:57.987Z,97421.38
2023-01-15T20:49:29.038Z,97420.89
2023-01-15T20:51:58.055Z,97415.45
2023-01-15T20:54:26.719Z,97415.27
2023-01-15T20:56:56.055Z,97417.52
2023-01-15T20:59:24.582Z,97417.80
2023-01-15T21:01:54.924Z,97417.91
2023-01-15T21:04:24.031Z,97415.66
2023-01-15T21:06:52.622Z,97406.20
2023-01-15T21:09:21.106Z,97404.95
2023-01-15T21:11:49.637Z,97407.55
2023-01-15T21:14:18.149Z,97410.43
2023-01-15T21:16:46.973Z,97406.85
2023-01-15T21:19:15.936Z,97401.41
2023-01-15T21:21:44.389Z,97403.27
2023-01-15T21:24:12.864Z,97407.08
2023-01-15T21:26:41.306Z,97406.00
2023-01-15T21:29:09.810Z,97403.98
2023-01-15T21:31:38.247Z,97398.10
2023-01-15T21:34:07.117Z,97394.59
2023-01-15T21:36:35.569Z,97389.92
2023-01-15T21:39:09.268Z,97388.72
2023-01-15T21:41:56.371Z,97399.23
2023-01-15T21:44:43.496Z,97396.83
2023-01-15T21:47:17.511Z,97395.73
2023-01-15T21:49:46.459Z,97394.84
2023-01-15T21:52:18.145Z,97394.21
2023-01-15T21:54:47.424Z,97394.81
2023-01-15T21:57:16.144Z,97393.07
2023-01-15T21:59:45.088Z,97390.38
2023-01-15T22:02:19.152Z,97388.05
2023-01-15T22:04:48.806Z,97387.72
2023-01-15T22:07:18.282Z,97386.73
2023-01-15T22:09:46.809Z,97388.66
2023-01-15T22:12:15.329Z,97388.75
2023-01-15T22:14:43.887Z,97382.23
2023-01-15T22:17:15.200Z,97378.33
2023-01-15T22:19:45.961Z,97371.93
2023-01-15T22:22:14.586Z,97370.00
2023-01-15T22:24:43.945Z,97372.60
2023-01-15T22:27:19.107Z,97371.68
2023-01-15T22:29:47.700Z,97364.95
2023-01-15T22:32:17.374Z,97362.13
2023-01-15T22:34:47.279Z,97359.82
2023-01-15T22:37:15.812Z,97354.05
2023-01-15T22:39:44.321Z,97355.90
2023-01-15T22:42:25.432Z,97351.46
2023-01-15T22:44:55.819Z,97339.44
2023-01-15T22:47:24.426Z,97334.86
2023-01-15T22:49:53.292Z,97333.48
2023-01-15T22:52:25.422Z,97337.49
2023-01-15T22:54:54.986Z,97333.97
2023-01-15T22:57:23.876Z,97327.35
2023-01-15T22:59:52.435Z,97324.61
2023-01-15T23:02:40.821Z,97325.23
2023-01-15T23:05:11.426Z,97325.89
2023-01-15T23:07:41.361Z,97326.15
2023-01-15T23:10:14.183Z,97321.67
2023-01-15T23:12:43.600Z,97323.15
2023-01-15T23:15:14.134Z,97322.85
2023-01-15T23:17:44.044Z,97325.34
2023-01-15T23:20:13.998Z,97323.27
2023-01-15T23:22:42.522Z,97322.78
2023-01-15T23:25:11.031Z,97321.86
2023-01-15T23:27:39.657Z,97316.98
2023-01-15T23:30:09.192Z,97312.42
2023-01-15T23:32:40.446Z,97315.21
2023-01-15T23:35:09.621Z,97321.73
2023-01-15T23:37:38.172Z,97320.89
2023-01-15T23:40:07.657Z,97317.33
2023-01-15T23:42:54.609Z,97309.17
2023-01-15T23:45:41.623Z,97305.84
2023-01-15T23:48:10.280Z,97300.38
2023-01-15T23:50:39.502Z,97294.86
2023-01-15T23:53:07.976Z,97290.73
2023-01-15T23:55:36.547Z,97287.74
2023-01-15T23:58:05.124Z,97282.02
